createdAt,value
2023-07-09T00:00:55.480Z,101792.44
2023-07-09T00:03:21.941Z,101794.13
2023-07-09T00:05:50.224Z,101789.06
2023-07-09T00:08:28.518Z,101786.50
2023-07-09T00:10:56.485Z,101785.81
2023-07-09T00:13:24.923Z,101794.69
2023-07-09T00:15:52.136Z,101790.81
2023-07-09T00:18:19.002Z,101799.06
2023-07-09T00:20:45.458Z,101801.25
2023-07-09T00:23:14.471Z,101802.44
2023-07-09T00:25:45.329Z,101811.72
2023-07-09T00:28:16.430Z,101813.78
2023-07-09T00:30:42.867Z,101810.34
2023-07-09T00:33:15.353Z,101807.94
2023-07-09T00:35:43.876Z,101807.13
2023-07-09T00:38:15.580Z,101812.41
2023-07-09T00:41:06.856Z,101812.03
2023-07-09T00:43:37.420Z,101817.22
2023-07-09T00:46:27.554Z,101812.94
2023-07-09T00:49:01.761Z,101811.22
2023-07-09T00:51:30.383Z,101812.66
2023-07-09T00:54:01.265Z,101816.34
2023-07-09T00:56:30.676Z,101828.50
2023-07-09T00:59:02.424Z,101823.69
2023-07-09T01:01:29.076Z,101832.84
2023-07-09T01:04:00.142Z,101828.84
2023-07-09T01:06:42.411Z,101831.91
2023-07-09T01:09:09.229Z,101829.94
2023-07-09T01:11:35.918Z,101828.81
2023-07-09T01:14:05.351Z,101827.06
2023-07-09T01:16:35.072Z,101823.38
2023-07-09T01:19:01.779Z,101816.84
2023-07-09T01:21:28.366Z,101818.47
2023-07-09T01:23:55.804Z,101820.28
2023-07-09T01:26:27.093Z,101815.00
2023-07-09T01:28:55.654Z,101817.88
2023-07-09T01:31:23.196Z,101817.88
2023-07-09T01:33:49.886Z,101821.34
2023-07-09T01:36:24.352Z,101817.06
2023-07-09T01:38:54.491Z,101816.06
2023-07-09T01:41:20.980Z,101818.69
2023-07-09T01:43:47.504Z,101816.50
2023-07-09T01:46:15.297Z,101820.38
2023-07-09T01:48:42.334Z,101820.59
2023-07-09T01:51:11.634Z,101827.16
2023-07-09T01:53:39.921Z,101828.38
2023-07-09T01:56:08.599Z,101829.63
2023-07-09T01:58:35.725Z,101823.41
2023-07-09T02:01:02.536Z,101829.94
2023-07-09T02:03:29.269Z,101834.63
2023-07-09T02:05:56.275Z,101833.47
2023-07-09T02:08:22.749Z,101833.91
2023-07-09T02:10:49.936Z,101843.63
2023-07-09T02:13:16.811Z,101827.25
2023-07-09T02:15:44.399Z,101823.59
2023-07-09T02:18:11.900Z,101825.63
2023-07-09T02:20:38.528Z,101836.63
2023-07-09T02:23:05.203Z,101830.31
2023-07-09T02:25:31.701Z,101827.69
2023-07-09T02:27:58.144Z,101825.25
2023-07-09T02:30:24.756Z,101831.59
2023-07-09T02:32:51.330Z,101823.06
2023-07-09T02:35:17.961Z,101827.75
2023-07-09T02:37:44.475Z,101827.75
2023-07-09T02:40:12.832Z,101829.81
2023-07-09T02:42:39.368Z,101825.56
2023-07-09T02:45:06.270Z,101826.59
2023-07-09T02:47:32.942Z,101824.97
2023-07-09T02:49:59.515Z,101830.47
2023-07-09T02:52:25.962Z,101825.41
2023-07-09T02:54:52.473Z,101825.09
2023-07-09T02:57:19.065Z,101829.19
2023-07-09T02:59:45.495Z,101822.75
2023-07-09T03:02:12.528Z,101819.50
2023-07-09T03:04:39.142Z,101830.06
2023-07-09T03:07:05.996Z,101830.06
2023-07-09T03:09:32.689Z,101831.53
2023-07-09T03:11:59.171Z,101824.66
2023-07-09T03:14:25.821Z,101833.97
2023-07-09T03:16:52.600Z,101826.25
2023-07-09T03:19:19.199Z,101832.34
2023-07-09T03:21:45.681Z,101833.34
2023-07-09T03:24:12.095Z,101835.41
2023-07-09T03:26:38.571Z,101827.72
2023-07-09T03:29:05.045Z,101826.91
2023-07-09T03:31:31.558Z,101830.56
2023-07-09T03:33:58.064Z,101842.94
2023-07-09T03:36:24.586Z,101845.56
2023-07-09T03:38:51.006Z,101848.00
2023-07-09T03:41:17.561Z,101844.56
2023-07-09T03:43:44.608Z,101840.88
2023-07-09T03:46:11.115Z,101837.81
2023-07-09T03:48:38.072Z,101832.97
2023-07-09T03:51:04.803Z,101843.09
2023-07-09T03:53:31.313Z,101838.19
2023-07-09T03:55:59.302Z,101841.88
2023-07-09T03:58:26.583Z,101840.16
2023-07-09T04:00:55.068Z,101844.75
2023-07-09T04:03:22.004Z,101842.66
2023-07-09T04:05:49.857Z,101845.63
2023-07-09T04:08:16.557Z,101847.22
2023-07-09T04:10:42.992Z,101848.41
2023-07-09T04:13:09.479Z,101852.22
2023-07-09T04:15:36.073Z,101845.47
2023-07-09T04:18:02.702Z,101850.91
2023-07-09T04:20:29.244Z,101845.31
2023-07-09T04:22:55.724Z,101848.38
2023-07-09T04:25:22.971Z,101841.59
2023-07-09T04:27:51.504Z,101851.63
2023-07-09T04:30:17.968Z,101854.63
2023-07-09T04:32:45.071Z,101857.38
2023-07-09T04:35:13.913Z,101851.53
2023-07-09T04:37:41.296Z,101845.94
2023-07-09T04:40:11.409Z,101848.84
2023-07-09T04:42:42.371Z,101845.88
2023-07-09T04:45:10.960Z,101842.19
2023-07-09T04:47:38.328Z,101847.69
2023-07-09T04:50:06.657Z,101846.44
2023-07-09T04:52:33.279Z,101849.69
2023-07-09T04:54:59.804Z,101851.44
2023-07-09T04:57:28.081Z,101851.41
2023-07-09T04:59:54.721Z,101840.09
2023-07-09T05:02:21.288Z,101842.97
2023-07-09T05:04:47.738Z,101843.81
2023-07-09T05:07:14.173Z,101837.44
2023-07-09T05:09:40.670Z,101827.34
2023-07-09T05:12:08.082Z,101830.63
2023-07-09T05:14:34.506Z,101831.78
2023-07-09T05:17:00.910Z,101832.91
2023-07-09T05:19:27.470Z,101837.16
2023-07-09T05:21:53.893Z,101834.31
2023-07-09T05:24:20.294Z,101832.63
2023-07-09T05:26:46.758Z,101833.84
2023-07-09T05:29:13.248Z,101831.81
2023-07-09T05:31:39.786Z,101830.81
2023-07-09T05:34:06.335Z,101831.38
2023-07-09T05:36:32.890Z,101828.63
2023-07-09T05:38:59.547Z,101830.25
2023-07-09T05:41:26.234Z,101826.53
2023-07-09T05:43:53.456Z,101830.28
2023-07-09T05:46:20.718Z,101827.06
2023-07-09T05:48:47.711Z,101825.53
2023-07-09T05:51:14.356Z,101826.63
2023-07-09T05:53:41.480Z,101840.50
2023-07-09T05:56:08.439Z,101840.78
2023-07-09T05:58:34.863Z,101845.72
2023-07-09T06:01:01.470Z,101844.50
2023-07-09T06:03:30.462Z,101847.53
2023-07-09T06:06:01.419Z,101848.94
2023-07-09T06:08:28.631Z,101841.72
2023-07-09T06:11:01.739Z,101851.63
2023-07-09T06:13:31.818Z,101859.97
2023-07-09T06:15:59.503Z,101857.13
2023-07-09T06:18:30.248Z,101855.25
2023-07-09T06:21:02.201Z,101860.44
2023-07-09T06:23:29.935Z,101860.00
2023-07-09T06:25:56.484Z,101854.09
2023-07-09T06:28:25.647Z,101854.81
2023-07-09T06:30:52.355Z,101863.44
2023-07-09T06:33:20.343Z,101864.06
2023-07-09T06:35:49.210Z,101855.19
2023-07-09T06:38:16.135Z,101859.41
2023-07-09T06:40:42.841Z,101868.81
2023-07-09T06:43:09.339Z,101856.69
2023-07-09T06:45:35.818Z,101871.22
2023-07-09T06:48:02.648Z,101866.25
2023-07-09T06:50:29.495Z,101861.88
2023-07-09T06:52:56.420Z,101859.66
2023-07-09T06:55:23.045Z,101865.16
2023-07-09T06:57:49.489Z,101861.44
2023-07-09T07:00:16.441Z,101863.66
2023-07-09T07:02:43.138Z,101851.75
2023-07-09T07:05:09.892Z,101851.94
2023-07-09T07:07:36.362Z,101863.34
2023-07-09T07:10:04.671Z,101859.88
2023-07-09T07:12:43.026Z,101863.25
2023-07-09T07:15:10.042Z,101859.91
2023-07-09T07:17:36.551Z,101857.44
2023-07-09T07:20:03.084Z,101861.72
2023-07-09T07:22:29.492Z,101861.97
2023-07-09T07:24:56.001Z,101859.38
2023-07-09T07:27:22.625Z,101854.69
2023-07-09T07:29:49.156Z,101849.38
2023-07-09T07:32:15.604Z,101847.50
2023-07-09T07:34:42.225Z,101855.69
2023-07-09T07:37:08.633Z,101863.69
2023-07-09T07:39:35.116Z,101857.47
2023-07-09T07:42:01.613Z,101861.88
2023-07-09T07:44:28.025Z,101863.38
2023-07-09T07:46:54.514Z,101861.94
2023-07-09T07:49:21.048Z,101864.31
2023-07-09T07:51:48.263Z,101866.53
2023-07-09T07:54:15.728Z,101860.06
2023-07-09T07:56:42.340Z,101857.97
2023-07-09T07:59:08.891Z,101856.66
2023-07-09T08:01:36.729Z,101857.91
2023-07-09T08:04:04.005Z,101860.97
2023-07-09T08:06:32.317Z,101858.56
2023-07-09T08:08:59.552Z,101860.97
2023-07-09T08:11:29.009Z,101858.41
2023-07-09T08:13:55.446Z,101857.50
2023-07-09T08:16:21.994Z,101861.28
2023-07-09T08:18:48.559Z,101874.03
2023-07-09T08:21:15.146Z,101863.66
2023-07-09T08:23:41.656Z,101847.38
2023-07-09T08:26:08.214Z,101848.75
2023-07-09T08:28:36.073Z,101853.72
2023-07-09T08:31:03.451Z,101855.63
2023-07-09T08:33:31.285Z,101856.63
2023-07-09T08:35:57.872Z,101850.53
2023-07-09T08:38:25.096Z,101865.44
2023-07-09T08:40:59.428Z,101857.63
2023-07-09T08:43:39.921Z,101859.06
2023-07-09T08:46:34.585Z,101851.41
2023-07-09T08:49:03.166Z,101857.63
2023-07-09T08:51:41.978Z,101849.66
2023-07-09T08:54:18.018Z,101847.84
2023-07-09T08:56:45.418Z,101848.72
2023-07-09T08:59:18.319Z,101841.38
2023-07-09T09:01:58.963Z,101841.94
2023-07-09T09:04:29.493Z,101847.13
2023-07-09T09:07:42.453Z,101841.78
2023-07-09T09:10:17.112Z,101846.06
2023-07-09T09:12:57.763Z,101846.22
2023-07-09T09:15:25.344Z,101839.91
2023-07-09T09:17:54.462Z,101848.84
2023-07-09T09:20:23.448Z,101843.94
2023-07-09T09:23:00.746Z,101845.72
2023-07-09T09:25:36.335Z,101850.75
2023-07-09T09:28:03.763Z,101840.59
2023-07-09T09:30:31.866Z,101843.81
2023-07-09T09:33:18.490Z,101837.78
2023-07-09T09:35:46.357Z,101839.88
2023-07-09T09:38:14.492Z,101841.44
2023-07-09T09:40:41.330Z,101839.25
2023-07-09T09:43:15.609Z,101835.28
2023-07-09T09:45:43.995Z,101832.28
2023-07-09T09:48:15.492Z,101836.25
2023-07-09T09:50:42.486Z,101834.41
2023-07-09T09:53:10.617Z,101824.47
2023-07-09T09:55:40.138Z,101824.94
2023-07-09T09:58:15.205Z,101823.13
2023-07-09T10:00:41.994Z,101821.50
2023-07-09T10:03:08.625Z,101812.94
2023-07-09T10:05:57.549Z,101816.72
2023-07-09T10:08:42.473Z,101810.06
2023-07-09T10:11:18.678Z,101802.06
2023-07-09T10:13:46.650Z,101805.50
2023-07-09T10:16:37.189Z,101802.38
2023-07-09T10:19:18.913Z,101806.44
2023-07-09T10:22:22.752Z,101792.66
2023-07-09T10:25:02.427Z,101793.81
2023-07-09T10:28:05.560Z,101798.19
2023-07-09T10:30:44.830Z,101793.88
2023-07-09T10:33:15.030Z,101804.13
2023-07-09T10:36:18.645Z,101805.53
2023-07-09T10:38:57.436Z,101809.91
2023-07-09T10:41:27.989Z,101813.72
2023-07-09T10:44:09.966Z,101803.41
2023-07-09T10:46:39.906Z,101810.13
2023-07-09T10:49:12.403Z,101808.69
2023-07-09T10:51:43.070Z,101812.25
2023-07-09T10:54:32.618Z,101814.28
2023-07-09T10:57:14.667Z,101802.03
2023-07-09T10:59:42.976Z,101802.16
2023-07-09T11:02:32.363Z,101806.75
2023-07-09T11:05:05.687Z,101797.03
2023-07-09T11:07:37.258Z,101812.06
2023-07-09T11:10:35.392Z,101811.47
2023-07-09T11:13:01.792Z,101814.94
2023-07-09T11:15:36.873Z,101816.00
2023-07-09T11:18:07.237Z,101809.13
2023-07-09T11:20:43.310Z,101808.19
2023-07-09T11:23:52.143Z,101802.66
2023-07-09T11:26:32.303Z,101790.16
2023-07-09T11:29:07.998Z,101788.00
2023-07-09T11:31:40.133Z,101782.78
2023-07-09T11:34:13.727Z,101778.19
2023-07-09T11:36:55.354Z,101781.97
2023-07-09T11:39:23.377Z,101776.53
2023-07-09T11:41:50.162Z,101787.06
2023-07-09T11:44:21.229Z,101791.63
2023-07-09T11:47:13.612Z,101791.97
2023-07-09T11:49:53.168Z,101791.97
2023-07-09T11:52:28.902Z,101791.59
2023-07-09T11:54:55.463Z,101793.44
2023-07-09T11:57:21.878Z,101789.09
2023-07-09T11:59:48.329Z,101794.28
2023-07-09T12:02:20.940Z,101800.25
2023-07-09T12:04:51.971Z,101812.38
2023-07-09T12:07:20.243Z,101816.63
2023-07-09T12:09:52.577Z,101816.84
2023-07-09T12:12:27.485Z,101812.09
2023-07-09T12:14:54.226Z,101814.47
2023-07-09T12:17:25.182Z,101832.13
2023-07-09T12:19:52.992Z,101824.97
2023-07-09T12:22:23.425Z,101833.22
2023-07-09T12:24:51.562Z,101837.09
2023-07-09T12:27:29.389Z,101833.31
2023-07-09T12:29:58.510Z,101829.06
2023-07-09T12:32:27.793Z,101831.72
2023-07-09T12:34:58.199Z,101827.84
2023-07-09T12:37:29.530Z,101822.34
2023-07-09T12:39:56.085Z,101815.16
2023-07-09T12:42:35.049Z,101811.22
2023-07-09T12:45:01.701Z,101803.75
2023-07-09T12:47:28.631Z,101818.69
2023-07-09T12:50:03.824Z,101831.13
2023-07-09T12:52:30.460Z,101832.69
2023-07-09T12:55:03.953Z,101826.38
2023-07-09T12:57:31.744Z,101819.16
2023-07-09T12:59:59.758Z,101819.03
2023-07-09T13:02:28.673Z,101820.13
2023-07-09T13:05:05.473Z,101819.00
2023-07-09T13:07:36.014Z,101815.13
2023-07-09T13:10:26.858Z,101824.16
2023-07-09T13:12:56.906Z,101833.41
2023-07-09T13:15:31.635Z,101831.22
2023-07-09T13:18:01.309Z,101824.31
2023-07-09T13:20:28.709Z,101822.47
2023-07-09T13:22:56.184Z,101830.47
2023-07-09T13:25:36.711Z,101849.25
2023-07-09T13:28:29.491Z,101854.22
2023-07-09T13:31:01.982Z,101854.09
2023-07-09T13:33:28.926Z,101854.66
2023-07-09T13:35:55.528Z,101855.25
2023-07-09T13:38:23.974Z,101854.22
2023-07-09T13:40:54.896Z,101847.81
2023-07-09T13:43:29.128Z,101854.81
2023-07-09T13:45:57.301Z,101845.03
2023-07-09T13:48:25.578Z,101840.28
2023-07-09T13:50:54.550Z,101833.91
2023-07-09T13:53:24.749Z,101829.84
2023-07-09T13:55:51.403Z,101825.34
2023-07-09T13:58:20.688Z,101824.59
2023-07-09T14:00:48.860Z,101834.81
2023-07-09T14:03:19.802Z,101832.38
2023-07-09T14:05:49.561Z,101835.78
2023-07-09T14:08:17.488Z,101835.34
2023-07-09T14:10:45.733Z,101848.66
2023-07-09T14:13:17.560Z,101848.00
2023-07-09T14:15:44.387Z,101846.94
2023-07-09T14:18:14.508Z,101856.31
2023-07-09T14:20:41.078Z,101851.84
2023-07-09T14:23:16.747Z,101833.81
2023-07-09T14:25:53.002Z,101816.38
2023-07-09T14:28:21.708Z,101822.31
2023-07-09T14:30:51.792Z,101827.28
2023-07-09T14:33:20.374Z,101836.13
2023-07-09T14:35:48.353Z,101838.28
2023-07-09T14:38:26.312Z,101842.28
2023-07-09T14:40:59.823Z,101854.56
2023-07-09T14:43:26.268Z,101857.47
2023-07-09T14:45:53.007Z,101853.97
2023-07-09T14:48:21.746Z,101873.88
2023-07-09T14:50:48.976Z,101923.34
2023-07-09T14:53:28.565Z,102048.84
2023-07-09T14:55:55.747Z,102117.81
2023-07-09T14:58:24.503Z,102129.66
2023-07-09T15:00:51.778Z,102111.31
2023-07-09T15:03:26.783Z,102094.59
2023-07-09T15:05:55.457Z,102037.34
2023-07-09T15:08:25.003Z,101999.97
2023-07-09T15:10:53.525Z,101978.25
2023-07-09T15:13:31.309Z,101956.88
2023-07-09T15:15:58.418Z,101973.19
2023-07-09T15:18:25.102Z,101967.53
2023-07-09T15:20:57.393Z,101951.31
2023-07-09T15:23:24.181Z,101947.94
2023-07-09T15:25:51.180Z,101947.25
2023-07-09T15:28:18.486Z,101938.00
2023-07-09T15:30:45.312Z,101932.31
2023-07-09T15:33:16.865Z,101926.88
2023-07-09T15:35:45.805Z,101922.25
2023-07-09T15:38:18.568Z,101924.63
2023-07-09T15:40:48.906Z,101931.13
2023-07-09T15:43:16.648Z,101934.97
2023-07-09T15:45:45.672Z,101933.34
2023-07-09T15:48:23.057Z,101929.22
2023-07-09T15:50:49.809Z,101927.00
2023-07-09T15:53:16.377Z,101941.00
2023-07-09T15:55:42.837Z,101930.75
2023-07-09T15:58:16.962Z,101933.19
2023-07-09T16:00:45.983Z,101926.44
2023-07-09T16:03:21.270Z,101930.78
2023-07-09T16:05:48.951Z,101924.13
2023-07-09T16:08:15.623Z,101928.69
2023-07-09T16:10:42.161Z,101916.97
2023-07-09T16:13:26.956Z,101924.38
2023-07-09T16:15:53.624Z,101931.53
2023-07-09T16:18:20.345Z,101935.44
2023-07-09T16:20:48.078Z,101938.75
2023-07-09T16:23:20.685Z,101941.41
2023-07-09T16:25:49.066Z,101940.47
2023-07-09T16:28:19.293Z,101942.09
2023-07-09T16:30:47.894Z,101942.34
2023-07-09T16:33:18.255Z,101946.59
2023-07-09T16:35:44.984Z,101943.16
2023-07-09T16:38:14.673Z,101940.84
2023-07-09T16:40:41.352Z,101941.84
2023-07-09T16:43:22.202Z,101936.53
2023-07-09T16:45:49.512Z,101936.13
2023-07-09T16:48:21.980Z,101941.91
2023-07-09T16:50:50.890Z,101938.66
2023-07-09T16:53:19.482Z,101943.56
2023-07-09T16:55:47.244Z,101942.53
2023-07-09T16:58:33.475Z,101953.69
2023-07-09T17:01:01.142Z,101956.94
2023-07-09T17:03:29.101Z,101960.50
2023-07-09T17:05:55.806Z,101962.19
2023-07-09T17:08:22.304Z,101964.22
2023-07-09T17:10:50.867Z,101963.00
2023-07-09T17:13:21.982Z,101977.31
2023-07-09T17:15:48.563Z,101973.84
2023-07-09T17:18:27.227Z,101973.22
2023-07-09T17:20:56.147Z,101981.09
2023-07-09T17:23:27.372Z,101974.16
2023-07-09T17:25:55.072Z,101983.56
2023-07-09T17:28:29.121Z,101983.00
2023-07-09T17:30:57.234Z,101993.09
2023-07-09T17:33:24.741Z,102002.50
2023-07-09T17:35:53.176Z,102002.94
2023-07-09T17:38:24.618Z,102005.06
2023-07-09T17:40:51.236Z,101991.06
2023-07-09T17:43:20.679Z,101998.38
2023-07-09T17:45:48.909Z,101997.09
2023-07-09T17:48:18.691Z,102005.84
2023-07-09T17:50:46.993Z,102001.72
2023-07-09T17:53:17.800Z,102007.03
2023-07-09T17:55:45.264Z,101993.94
2023-07-09T17:58:22.334Z,102001.63
2023-07-09T18:00:51.318Z,102000.53
2023-07-09T18:03:17.898Z,102003.66
2023-07-09T18:05:45.028Z,102000.19
2023-07-09T18:08:13.226Z,102005.94
2023-07-09T18:10:42.433Z,102003.41
2023-07-09T18:13:13.583Z,101999.94
2023-07-09T18:15:41.589Z,102008.03
2023-07-09T18:18:10.033Z,102005.75
2023-07-09T18:20:36.650Z,102013.84
2023-07-09T18:23:03.548Z,102017.34
2023-07-09T18:25:31.171Z,102011.28
2023-07-09T18:28:02.579Z,102019.03
2023-07-09T18:30:32.873Z,102022.06
2023-07-09T18:33:03.618Z,102024.34
2023-07-09T18:35:33.342Z,102025.84
2023-07-09T18:38:05.800Z,102031.50
2023-07-09T18:40:38.147Z,102027.91
2023-07-09T18:43:31.530Z,102041.22
2023-07-09T18:45:58.953Z,102039.44
2023-07-09T18:48:26.301Z,102045.19
2023-07-09T18:50:54.519Z,102047.19
2023-07-09T18:53:23.433Z,102046.84
2023-07-09T18:55:50.960Z,102046.53
2023-07-09T18:58:29.262Z,102049.66
2023-07-09T19:00:58.201Z,102047.34
2023-07-09T19:03:32.136Z,102049.03
2023-07-09T19:05:59.741Z,102042.50
2023-07-09T19:08:28.312Z,102039.53
2023-07-09T19:10:55.996Z,102033.22
2023-07-09T19:13:22.875Z,102034.34
2023-07-09T19:15:51.330Z,102025.13
2023-07-09T19:18:25.050Z,102018.41
2023-07-09T19:20:52.404Z,102016.00
2023-07-09T19:23:19.616Z,102009.41
2023-07-09T19:25:47.127Z,102001.56
2023-07-09T19:28:14.757Z,102019.47
2023-07-09T19:30:43.112Z,102012.72
2023-07-09T19:33:17.700Z,102020.13
2023-07-09T19:35:44.322Z,102025.72
2023-07-09T19:38:10.980Z,102030.66
2023-07-09T19:40:40.094Z,102023.84
2023-07-09T19:43:08.431Z,102025.72
2023-07-09T19:45:40.269Z,102028.78
2023-07-09T19:48:15.764Z,102015.81
2023-07-09T19:50:48.052Z,102013.41
2023-07-09T19:53:20.305Z,102013.63
2023-07-09T19:55:46.926Z,102020.28
2023-07-09T19:58:13.452Z,102027.31
2023-07-09T20:00:40.228Z,102021.41
2023-07-09T20:03:22.846Z,102036.16
2023-07-09T20:05:49.473Z,102038.44
2023-07-09T20:08:19.938Z,102048.00
2023-07-09T20:10:47.255Z,102056.13
2023-07-09T20:13:15.911Z,102057.41
2023-07-09T20:15:43.234Z,102062.06
2023-07-09T20:18:17.620Z,102063.78
2023-07-09T20:21:05.530Z,102055.84
2023-07-09T20:23:32.861Z,102061.06
2023-07-09T20:26:00.172Z,102056.34
2023-07-09T20:28:28.831Z,102065.69
2023-07-09T20:30:56.518Z,102064.84
2023-07-09T20:33:24.502Z,102070.91
2023-07-09T20:35:51.669Z,102072.53
2023-07-09T20:38:21.200Z,102076.78
2023-07-09T20:40:48.424Z,102064.97
2023-07-09T20:43:20.235Z,102079.78
2023-07-09T20:45:47.315Z,102074.75
2023-07-09T20:48:13.844Z,102078.84
2023-07-09T20:50:42.759Z,102073.56
2023-07-09T20:53:15.929Z,102064.84
2023-07-09T20:55:43.805Z,102073.34
2023-07-09T20:58:17.317Z,102068.84
2023-07-09T21:00:44.698Z,102065.63
2023-07-09T21:03:17.613Z,102055.28
2023-07-09T21:05:44.742Z,102054.75
2023-07-09T21:08:17.308Z,102056.00
2023-07-09T21:10:45.315Z,102065.53
2023-07-09T21:13:15.014Z,102078.53
2023-07-09T21:15:41.701Z,102081.97
2023-07-09T21:18:15.604Z,102084.38
2023-07-09T21:20:42.409Z,102081.34
2023-07-09T21:23:15.837Z,102074.41
2023-07-09T21:25:42.508Z,102073.19
2023-07-09T21:28:08.997Z,102071.34
2023-07-09T21:30:35.501Z,102075.00
2023-07-09T21:33:02.291Z,102081.34
2023-07-09T21:35:28.952Z,102079.53
2023-07-09T21:37:58.028Z,102083.63
2023-07-09T21:40:32.181Z,102089.94
2023-07-09T21:43:00.875Z,102100.94
2023-07-09T21:45:32.300Z,102094.03
2023-07-09T21:48:05.333Z,102094.88
2023-07-09T21:50:32.814Z,102089.59
2023-07-09T21:52:59.485Z,102098.53
2023-07-09T21:55:28.781Z,102093.81
2023-07-09T21:57:56.492Z,102100.56
2023-07-09T22:00:28.261Z,102097.53
2023-07-09T22:02:55.845Z,102094.31
2023-07-09T22:05:28.091Z,102090.31
2023-07-09T22:07:56.666Z,102102.88
2023-07-09T22:10:52.029Z,102101.28
2023-07-09T22:13:19.790Z,102103.94
2023-07-09T22:15:46.503Z,102119.38
2023-07-09T22:18:19.027Z,102113.50
2023-07-09T22:20:46.015Z,102123.25
2023-07-09T22:23:23.364Z,102114.75
2023-07-09T22:25:50.469Z,102110.94
2023-07-09T22:28:18.567Z,102100.00
2023-07-09T22:30:46.041Z,102114.41
2023-07-09T22:33:13.261Z,102111.63
2023-07-09T22:35:39.848Z,102113.53
2023-07-09T22:38:20.040Z,102115.31
2023-07-09T22:40:48.140Z,102116.38
2023-07-09T22:43:14.879Z,102113.31
2023-07-09T22:45:44.573Z,102114.78
2023-07-09T22:48:11.988Z,102113.00
2023-07-09T22:50:39.904Z,102125.22
2023-07-09T22:53:12.544Z,102121.59
2023-07-09T22:55:41.182Z,102117.13
2023-07-09T22:58:09.917Z,102115.75
2023-07-09T23:00:47.858Z,102115.38
2023-07-09T23:03:18.160Z,102120.84
2023-07-09T23:05:46.197Z,102120.44
2023-07-09T23:08:20.310Z,102110.94
2023-07-09T23:10:47.235Z,102115.38
2023-07-09T23:13:13.899Z,102105.88
2023-07-09T23:15:40.446Z,102099.78
2023-07-09T23:18:17.310Z,102108.94
2023-07-09T23:20:44.125Z,102106.94
2023-07-09T23:23:11.371Z,102111.59
2023-07-09T23:25:38.121Z,102112.66
2023-07-09T23:28:05.961Z,102117.16
2023-07-09T23:30:34.696Z,102118.78
2023-07-09T23:33:18.887Z,102120.25
2023-07-09T23:35:45.393Z,102115.59
2023-07-09T23:38:11.868Z,102109.91
2023-07-09T23:40:38.295Z,102119.06
2023-07-09T23:43:04.853Z,102121.09
2023-07-09T23:45:34.578Z,102121.72
2023-07-09T23:48:04.731Z,102112.38
2023-07-09T23:50:31.213Z,102109.97
2023-07-09T23:52:57.651Z,102103.91
2023-07-09T23:55:24.554Z,102102.47
2023-07-09T23:57:57.830Z,102097.03
